LFQQ

Lille-Lesquin Airport

Airport
ICAO code
LFQQ
IATA Code
LIL
Summary
ICAO Region
EUR
ICAO Territory
Location

, Nord-Pas-de-Calais

Serving
Lille
Elevation
157 ft
Coordinates
50° 33' 43" N , 3° 5' 22" E
Metar
LFQQ 140500Z AUTO 19013KT 9999 SCT014 OVC020 12/10 Q1006 TEMPO 4500 RA BKN009

Runways

Designator Length Width Surface Rops
2/20 1580 30 ASP Yes/Yes
8/26 2825 45 ASP Yes/Yes

Airport map

Aerial View

SKYbrary Partners:

Safety knowledge contributed by: